sensor_id;sensor_type;location;lat;lon;timestamp;temperature;humidity
8860;DHT22;4466;50.948;4.832;2024-02-23T00:02:17;6.40;99.90
8860;DHT22;4466;50.948;4.832;2024-02-23T00:04:43;6.30;99.90
8860;DHT22;4466;50.948;4.832;2024-02-23T00:07:10;6.40;99.90
8860;DHT22;4466;50.948;4.832;2024-02-23T00:09:36;6.30;99.90
8860;DHT22;4466;50.948;4.832;2024-02-23T00:12:01;6.30;99.90
8860;DHT22;4466;50.948;4.832;2024-02-23T00:14:27;6.30;99.90
8860;DHT22;4466;50.948;4.832;2024-02-23T00:16:53;6.30;99.90
8860;DHT22;4466;50.948;4.832;2024-02-23T00:19:19;6.20;99.90
8860;DHT22;4466;50.948;4.832;2024-02-23T00:21:45;6.30;99.90
8860;DHT22;4466;50.948;4.832;2024-02-23T00:24:18;6.30;99.90
8860;DHT22;4466;50.948;4.832;2024-02-23T00:26:47;6.20;99.90
8860;DHT22;4466;50.948;4.832;2024-02-23T00:29:13;6.20;99.90
8860;DHT22;4466;50.948;4.832;2024-02-23T00:31:39;6.10;99.90
8860;DHT22;4466;50.948;4.832;2024-02-23T00:34:07;6.10;99.90
8860;DHT22;4466;50.948;4.832;2024-02-23T00:36:38;6.10;99.90
8860;DHT22;4466;50.948;4.832;2024-02-23T00:39:04;6.20;99.90
8860;DHT22;4466;50.948;4.832;2024-02-23T00:41:29;6.20;99.90
8860;DHT22;4466;50.948;4.832;2024-02-23T00:43:55;6.20;99.90
8860;DHT22;4466;50.948;4.832;2024-02-23T00:46:20;6.20;99.90
8860;DHT22;4466;50.948;4.832;2024-02-23T00:48:46;6.30;99.90
8860;DHT22;4466;50.948;4.832;2024-02-23T00:51:12;6.20;99.90
8860;DHT22;4466;50.948;4.832;2024-02-23T00:53:38;6.20;99.90
8860;DHT22;4466;50.948;4.832;2024-02-23T00:56:04;6.10;99.90
8860;DHT22;4466;50.948;4.832;2024-02-23T00:58:29;6.20;99.90
8860;DHT22;4466;50.948;4.832;2024-02-23T01:00:55;6.10;99.90
8860;DHT22;4466;50.948;4.832;2024-02-23T01:03:21;6.10;99.90
8860;DHT22;4466;50.948;4.832;2024-02-23T01:05:47;6.10;99.90
8860;DHT22;4466;50.948;4.832;2024-02-23T01:08:13;6.10;99.90
8860;DHT22;4466;50.948;4.832;2024-02-23T01:10:38;6.20;99.90
8860;DHT22;4466;50.948;4.832;2024-02-23T01:13:04;6.20;99.90
8860;DHT22;4466;50.948;4.832;2024-02-23T01:15:30;6.20;99.90
8860;DHT22;4466;50.948;4.832;2024-02-23T01:17:56;6.20;99.90
8860;DHT22;4466;50.948;4.832;2024-02-23T01:20:22;6.10;99.90
8860;DHT22;4466;50.948;4.832;2024-02-23T01:22:47;6.00;99.90
8860;DHT22;4466;50.948;4.832;2024-02-23T01:25:13;5.90;99.90
8860;DHT22;4466;50.948;4.832;2024-02-23T01:27:41;5.90;99.90
8860;DHT22;4466;50.948;4.832;2024-02-23T01:30:07;5.90;99.90
8860;DHT22;4466;50.948;4.832;2024-02-23T01:32:33;5.90;99.90
8860;DHT22;4466;50.948;4.832;2024-02-23T01:34:58;5.90;99.90
8860;DHT22;4466;50.948;4.832;2024-02-23T01:37:25;5.90;99.90
8860;DHT22;4466;50.948;4.832;2024-02-23T01:39:51;5.90;99.90
8860;DHT22;4466;50.948;4.832;2024-02-23T01:42:16;5.90;99.90
8860;DHT22;4466;50.948;4.832;2024-02-23T01:44:42;5.90;99.90
8860;DHT22;4466;50.948;4.832;2024-02-23T01:47:08;5.90;99.90
8860;DHT22;4466;50.948;4.832;2024-02-23T01:49:34;5.80;99.90
8860;DHT22;4466;50.948;4.832;2024-02-23T01:52:02;5.80;99.90
8860;DHT22;4466;50.948;4.832;2024-02-23T01:54:29;5.80;99.90
8860;DHT22;4466;50.948;4.832;2024-02-23T01:56:56;5.80;99.90
8860;DHT22;4466;50.948;4.832;2024-02-23T01:59:23;5.70;99.90
8860;DHT22;4466;50.948;4.832;2024-02-23T02:01:49;5.70;99.90
8860;DHT22;4466;50.948;4.832;2024-02-23T02:04:14;5.70;99.90
8860;DHT22;4466;50.948;4.832;2024-02-23T02:06:40;5.70;99.90
8860;DHT22;4466;50.948;4.832;2024-02-23T02:09:06;5.70;99.90
8860;DHT22;4466;50.948;4.832;2024-02-23T02:11:33;5.70;99.90
8860;DHT22;4466;50.948;4.832;2024-02-23T02:13:58;5.80;99.90
8860;DHT22;4466;50.948;4.832;2024-02-23T02:16:25;5.80;99.90
8860;DHT22;4466;50.948;4.832;2024-02-23T02:18:51;5.70;99.90
8860;DHT22;4466;50.948;4.832;2024-02-23T02:21:16;5.80;99.90
8860;DHT22;4466;50.948;4.832;2024-02-23T02:23:42;5.90;99.90
8860;DHT22;4466;50.948;4.832;2024-02-23T02:26:08;5.80;99.90
8860;DHT22;4466;50.948;4.832;2024-02-23T02:28:33;5.90;99.90
8860;DHT22;4466;50.948;4.832;2024-02-23T02:30:59;5.90;99.90
8860;DHT22;4466;50.948;4.832;2024-02-23T02:33:25;6.00;99.90
8860;DHT22;4466;50.948;4.832;2024-02-23T02:35:51;6.00;99.90
8860;DHT22;4466;50.948;4.832;2024-02-23T02:38:16;6.00;99.90
8860;DHT22;4466;50.948;4.832;2024-02-23T02:40:42;6.00;99.90
8860;DHT22;4466;50.948;4.832;2024-02-23T02:43:08;6.00;99.90
8860;DHT22;4466;50.948;4.832;2024-02-23T02:45:33;6.00;99.90
8860;DHT22;4466;50.948;4.832;2024-02-23T02:48:03;6.00;99.90
8860;DHT22;4466;50.948;4.832;2024-02-23T02:50:28;6.10;99.90
8860;DHT22;4466;50.948;4.832;2024-02-23T02:52:54;6.10;99.90
8860;DHT22;4466;50.948;4.832;2024-02-23T02:55:20;6.10;99.90
8860;DHT22;4466;50.948;4.832;2024-02-23T02:57:46;6.20;99.90
8860;DHT22;4466;50.948;4.832;2024-02-23T03:00:12;6.10;99.90
8860;DHT22;4466;50.948;4.832;2024-02-23T03:02:38;6.20;99.90
8860;DHT22;4466;50.948;4.832;2024-02-23T03:05:03;6.20;99.90
8860;DHT22;4466;50.948;4.832;2024-02-23T03:07:29;6.20;99.90
8860;DHT22;4466;50.948;4.832;2024-02-23T03:09:55;6.30;99.90
8860;DHT22;4466;50.948;4.832;2024-02-23T03:12:20;6.30;99.90
8860;DHT22;4466;50.948;4.832;2024-02-23T03:14:46;6.30;99.90
8860;DHT22;4466;50.948;4.832;2024-02-23T03:17:12;6.20;99.90
8860;DHT22;4466;50.948;4.832;2024-02-23T03:19:38;6.20;99.90
8860;DHT22;4466;50.948;4.832;2024-02-23T03:22:04;6.20;99.90
8860;DHT22;4466;50.948;4.832;2024-02-23T03:24:30;6.20;99.90
8860;DHT22;4466;50.948;4.832;2024-02-23T03:26:55;6.30;99.90
8860;DHT22;4466;50.948;4.832;2024-02-23T03:29:22;6.30;99.90
8860;DHT22;4466;50.948;4.832;2024-02-23T03:31:50;6.30;99.90
8860;DHT22;4466;50.948;4.832;2024-02-23T03:34:15;6.30;99.90
8860;DHT22;4466;50.948;4.832;2024-02-23T03:36:41;6.30;99.90
8860;DHT22;4466;50.948;4.832;2024-02-23T03:39:07;6.20;99.90
8860;DHT22;4466;50.948;4.832;2024-02-23T03:41:32;6.20;99.90
8860;DHT22;4466;50.948;4.832;2024-02-23T03:43:58;6.20;99.90
8860;DHT22;4466;50.948;4.832;2024-02-23T03:46:24;6.20;99.90
8860;DHT22;4466;50.948;4.832;2024-02-23T03:48:50;6.20;99.90
8860;DHT22;4466;50.948;4.832;2024-02-23T03:51:15;6.20;99.90
8860;DHT22;4466;50.948;4.832;2024-02-23T03:53:41;6.20;99.90
8860;DHT22;4466;50.948;4.832;2024-02-23T03:56:07;6.30;99.90
8860;DHT22;4466;50.948;4.832;2024-02-23T03:58:34;6.20;99.90
8860;DHT22;4466;50.948;4.832;2024-02-23T04:00:59;6.30;99.90
8860;DHT22;4466;50.948;4.832;2024-02-23T04:03:25;6.30;99.90
8860;DHT22;4466;50.948;4.832;2024-02-23T04:05:50;6.20;99.90
8860;DHT22;4466;50.948;4.832;2024-02-23T04:08:16;6.20;99.90
8860;DHT22;4466;50.948;4.832;2024-02-23T04:10:42;6.20;99.90
8860;DHT22;4466;50.948;4.832;2024-02-23T04:13:07;6.10;99.90
8860;DHT22;4466;50.948;4.832;2024-02-23T04:15:33;6.20;99.90
8860;DHT22;4466;50.948;4.832;2024-02-23T04:17:59;6.20;99.90
8860;DHT22;4466;50.948;4.832;2024-02-23T04:20:25;6.20;99.90
8860;DHT22;4466;50.948;4.832;2024-02-23T04:22:50;6.20;99.90
8860;DHT22;4466;50.948;4.832;2024-02-23T04:25:16;6.30;99.90
8860;DHT22;4466;50.948;4.832;2024-02-23T04:27:42;6.20;99.90
8860;DHT22;4466;50.948;4.832;2024-02-23T04:30:09;6.30;99.90
8860;DHT22;4466;50.948;4.832;2024-02-23T04:32:35;6.30;99.90
8860;DHT22;4466;50.948;4.832;2024-02-23T04:35:01;6.30;99.90
8860;DHT22;4466;50.948;4.832;2024-02-23T04:37:26;6.40;99.90
8860;DHT22;4466;50.948;4.832;2024-02-23T04:39:52;6.40;99.90
8860;DHT22;4466;50.948;4.832;2024-02-23T04:42:17;6.40;99.90
8860;DHT22;4466;50.948;4.832;2024-02-23T04:44:43;6.40;99.90
8860;DHT22;4466;50.948;4.832;2024-02-23T04:47:09;6.40;99.90
8860;DHT22;4466;50.948;4.832;2024-02-23T04:49:35;6.40;99.90
8860;DHT22;4466;50.948;4.832;2024-02-23T04:52:00;6.40;99.90
8860;DHT22;4466;50.948;4.832;2024-02-23T04:54:26;6.40;99.90
8860;DHT22;4466;50.948;4.832;2024-02-23T04:56:52;6.40;99.90
8860;DHT22;4466;50.948;4.832;2024-02-23T04:59:18;6.40;99.90
8860;DHT22;4466;50.948;4.832;2024-02-23T05:01:43;6.50;99.90
8860;DHT22;4466;50.948;4.832;2024-02-23T05:04:09;6.40;99.90
8860;DHT22;4466;50.948;4.832;2024-02-23T05:06:35;6.30;99.90
8860;DHT22;4466;50.948;4.832;2024-02-23T05:09:01;6.40;99.90
8860;DHT22;4466;50.948;4.832;2024-02-23T05:11:47;6.40;99.90
8860;DHT22;4466;50.948;4.832;2024-02-23T05:14:14;6.40;99.90
8860;DHT22;4466;50.948;4.832;2024-02-23T05:16:39;6.40;99.90
8860;DHT22;4466;50.948;4.832;2024-02-23T05:19:05;6.40;99.90
8860;DHT22;4466;50.948;4.832;2024-02-23T05:21:31;6.40;99.90
8860;DHT22;4466;50.948;4.832;2024-02-23T05:23:56;6.40;99.90
8860;DHT22;4466;50.948;4.832;2024-02-23T05:26:22;6.50;99.90
8860;DHT22;4466;50.948;4.832;2024-02-23T05:28:48;6.50;99.90
8860;DHT22;4466;50.948;4.832;2024-02-23T05:31:14;6.40;99.90
8860;DHT22;4466;50.948;4.832;2024-02-23T05:33:39;6.50;99.90
8860;DHT22;4466;50.948;4.832;2024-02-23T05:36:05;6.40;99.90
8860;DHT22;4466;50.948;4.832;2024-02-23T05:38:31;6.50;99.90
8860;DHT22;4466;50.948;4.832;2024-02-23T05:40:57;6.50;99.90
8860;DHT22;4466;50.948;4.832;2024-02-23T05:43:22;6.50;99.90
8860;DHT22;4466;50.948;4.832;2024-02-23T05:45:48;6.50;99.90
8860;DHT22;4466;50.948;4.832;2024-02-23T05:48:14;6.50;99.90
8860;DHT22;4466;50.948;4.832;2024-02-23T05:50:40;6.50;99.90
8860;DHT22;4466;50.948;4.832;2024-02-23T05:53:06;6.50;99.90
8860;DHT22;4466;50.948;4.832;2024-02-23T05:55:31;6.50;99.90
8860;DHT22;4466;50.948;4.832;2024-02-23T05:57:57;6.50;99.90
8860;DHT22;4466;50.948;4.832;2024-02-23T06:00:22;6.50;99.90
8860;DHT22;4466;50.948;4.832;2024-02-23T06:02:48;6.50;99.90
8860;DHT22;4466;50.948;4.832;2024-02-23T06:05:14;6.50;99.90
8860;DHT22;4466;50.948;4.832;2024-02-23T06:07:40;6.50;99.90
8860;DHT22;4466;50.948;4.832;2024-02-23T06:10:07;6.50;99.90
8860;DHT22;4466;50.948;4.832;2024-02-23T06:12:32;6.50;99.90
8860;DHT22;4466;50.948;4.832;2024-02-23T06:14:58;6.50;99.90
8860;DHT22;4466;50.948;4.832;2024-02-23T06:17:24;6.50;99.90
8860;DHT22;4466;50.948;4.832;2024-02-23T06:19:50;6.50;99.90
8860;DHT22;4466;50.948;4.832;2024-02-23T06:22:18;6.40;99.90
8860;DHT22;4466;50.948;4.832;2024-02-23T06:24:46;6.50;99.90
8860;DHT22;4466;50.948;4.832;2024-02-23T06:27:12;6.50;99.90
8860;DHT22;4466;50.948;4.832;2024-02-23T06:29:38;6.50;99.90
8860;DHT22;4466;50.948;4.832;2024-02-23T06:32:04;6.50;99.90
8860;DHT22;4466;50.948;4.832;2024-02-23T06:34:29;6.50;99.90
8860;DHT22;4466;50.948;4.832;2024-02-23T06:36:55;6.50;99.90
8860;DHT22;4466;50.948;4.832;2024-02-23T06:39:21;6.50;99.90
8860;DHT22;4466;50.948;4.832;2024-02-23T06:41:47;6.50;99.90
8860;DHT22;4466;50.948;4.832;2024-02-23T06:44:12;6.50;99.90
8860;DHT22;4466;50.948;4.832;2024-02-23T06:46:38;6.50;99.90
8860;DHT22;4466;50.948;4.832;2024-02-23T06:49:04;6.60;99.90
8860;DHT22;4466;50.948;4.832;2024-02-23T06:51:33;6.60;99.90
8860;DHT22;4466;50.948;4.832;2024-02-23T06:53:59;6.60;99.90
8860;DHT22;4466;50.948;4.832;2024-02-23T06:56:24;6.60;99.90
8860;DHT22;4466;50.948;4.832;2024-02-23T06:58:50;6.60;99.90
8860;DHT22;4466;50.948;4.832;2024-02-23T07:01:15;6.60;99.90
8860;DHT22;4466;50.948;4.832;2024-02-23T07:03:41;6.60;99.90
8860;DHT22;4466;50.948;4.832;2024-02-23T07:06:08;6.60;99.90
8860;DHT22;4466;50.948;4.832;2024-02-23T07:08:37;6.60;99.90
8860;DHT22;4466;50.948;4.832;2024-02-23T07:11:03;6.50;99.90
8860;DHT22;4466;50.948;4.832;2024-02-23T07:13:29;6.60;99.90
8860;DHT22;4466;50.948;4.832;2024-02-23T07:15:55;6.70;99.90
8860;DHT22;4466;50.948;4.832;2024-02-23T07:18:22;6.70;99.90
8860;DHT22;4466;50.948;4.832;2024-02-23T07:20:47;6.70;99.90
8860;DHT22;4466;50.948;4.832;2024-02-23T07:23:13;6.80;99.90
8860;DHT22;4466;50.948;4.832;2024-02-23T07:25:41;6.80;99.90
8860;DHT22;4466;50.948;4.832;2024-02-23T07:28:07;6.80;99.90
8860;DHT22;4466;50.948;4.832;2024-02-23T07:30:33;6.90;99.90
8860;DHT22;4466;50.948;4.832;2024-02-23T07:33:00;6.80;99.90
8860;DHT22;4466;50.948;4.832;2024-02-23T07:35:26;6.90;99.90
8860;DHT22;4466;50.948;4.832;2024-02-23T07:37:54;6.90;99.90
8860;DHT22;4466;50.948;4.832;2024-02-23T07:40:20;6.90;99.90
8860;DHT22;4466;50.948;4.832;2024-02-23T07:42:46;6.90;99.90
8860;DHT22;4466;50.948;4.832;2024-02-23T07:45:11;6.90;99.90
8860;DHT22;4466;50.948;4.832;2024-02-23T07:47:37;6.90;99.90
8860;DHT22;4466;50.948;4.832;2024-02-23T07:50:03;6.80;99.90
8860;DHT22;4466;50.948;4.832;2024-02-23T07:52:28;6.90;99.90
8860;DHT22;4466;50.948;4.832;2024-02-23T07:54:54;6.90;99.90
8860;DHT22;4466;50.948;4.832;2024-02-23T07:57:20;6.90;99.90
8860;DHT22;4466;50.948;4.832;2024-02-23T07:59:47;6.90;99.90
8860;DHT22;4466;50.948;4.832;2024-02-23T08:02:13;6.90;99.90
8860;DHT22;4466;50.948;4.832;2024-02-23T08:04:39;7.00;99.90
8860;DHT22;4466;50.948;4.832;2024-02-23T08:07:05;7.00;99.90
8860;DHT22;4466;50.948;4.832;2024-02-23T08:09:30;7.10;99.90
8860;DHT22;4466;50.948;4.832;2024-02-23T08:11:56;7.10;99.90
8860;DHT22;4466;50.948;4.832;2024-02-23T08:14:21;7.20;99.90
8860;DHT22;4466;50.948;4.832;2024-02-23T08:16:47;7.20;99.90
8860;DHT22;4466;50.948;4.832;2024-02-23T08:19:13;7.30;99.90
8860;DHT22;4466;50.948;4.832;2024-02-23T08:21:38;7.30;99.90
8860;DHT22;4466;50.948;4.832;2024-02-23T08:24:04;7.30;99.90
8860;DHT22;4466;50.948;4.832;2024-02-23T08:26:30;7.30;99.90
8860;DHT22;4466;50.948;4.832;2024-02-23T08:28:56;7.20;99.90
8860;DHT22;4466;50.948;4.832;2024-02-23T08:31:21;7.20;99.90
8860;DHT22;4466;50.948;4.832;2024-02-23T08:33:47;7.20;99.90
8860;DHT22;4466;50.948;4.832;2024-02-23T08:36:13;7.20;99.90
8860;DHT22;4466;50.948;4.832;2024-02-23T08:38:38;7.20;99.90
8860;DHT22;4466;50.948;4.832;2024-02-23T08:41:04;7.20;99.90
8860;DHT22;4466;50.948;4.832;2024-02-23T08:43:30;7.20;99.90
8860;DHT22;4466;50.948;4.832;2024-02-23T08:45:55;7.20;99.90
8860;DHT22;4466;50.948;4.832;2024-02-23T08:48:21;7.30;99.90
8860;DHT22;4466;50.948;4.832;2024-02-23T08:50:46;7.30;99.90
8860;DHT22;4466;50.948;4.832;2024-02-23T08:53:12;7.40;99.90
8860;DHT22;4466;50.948;4.832;2024-02-23T08:55:38;7.30;99.90
8860;DHT22;4466;50.948;4.832;2024-02-23T08:58:03;7.30;99.90
8860;DHT22;4466;50.948;4.832;2024-02-23T09:00:31;7.20;99.90
8860;DHT22;4466;50.948;4.832;2024-02-23T09:02:57;7.10;99.90
8860;DHT22;4466;50.948;4.832;2024-02-23T09:05:22;7.00;99.90
8860;DHT22;4466;50.948;4.832;2024-02-23T09:07:48;6.90;99.90
8860;DHT22;4466;50.948;4.832;2024-02-23T09:10:14;6.90;99.90
8860;DHT22;4466;50.948;4.832;2024-02-23T09:12:39;6.90;99.90
8860;DHT22;4466;50.948;4.832;2024-02-23T09:15:05;7.00;99.90
8860;DHT22;4466;50.948;4.832;2024-02-23T09:17:31;7.10;99.90
8860;DHT22;4466;50.948;4.832;2024-02-23T09:19:57;7.10;99.90
8860;DHT22;4466;50.948;4.832;2024-02-23T09:22:23;7.10;99.90
8860;DHT22;4466;50.948;4.832;2024-02-23T09:24:49;7.10;99.90
8860;DHT22;4466;50.948;4.832;2024-02-23T09:27:15;7.20;99.90
8860;DHT22;4466;50.948;4.832;2024-02-23T09:29:41;7.30;99.90
8860;DHT22;4466;50.948;4.832;2024-02-23T09:32:07;7.40;99.90
8860;DHT22;4466;50.948;4.832;2024-02-23T09:34:33;7.60;99.90
8860;DHT22;4466;50.948;4.832;2024-02-23T09:36:59;7.50;99.90
8860;DHT22;4466;50.948;4.832;2024-02-23T09:39:25;7.50;99.90
8860;DHT22;4466;50.948;4.832;2024-02-23T09:41:54;7.40;99.90
8860;DHT22;4466;50.948;4.832;2024-02-23T09:44:22;7.40;99.90
8860;DHT22;4466;50.948;4.832;2024-02-23T09:46:48;7.30;99.90
8860;DHT22;4466;50.948;4.832;2024-02-23T09:49:15;7.40;99.90
8860;DHT22;4466;50.948;4.832;2024-02-23T09:51:40;7.40;99.90
8860;DHT22;4466;50.948;4.832;2024-02-23T09:54:07;7.40;99.90
8860;DHT22;4466;50.948;4.832;2024-02-23T09:56:33;7.40;99.90
8860;DHT22;4466;50.948;4.832;2024-02-23T09:59:02;7.60;99.90
8860;DHT22;4466;50.948;4.832;2024-02-23T10:01:30;7.70;99.90
8860;DHT22;4466;50.948;4.832;2024-02-23T10:04:00;7.90;99.90
8860;DHT22;4466;50.948;4.832;2024-02-23T10:06:27;8.00;99.90
8860;DHT22;4466;50.948;4.832;2024-02-23T10:08:53;8.30;99.90
8860;DHT22;4466;50.948;4.832;2024-02-23T10:11:22;8.40;99.90
8860;DHT22;4466;50.948;4.832;2024-02-23T10:13:49;8.50;99.90
8860;DHT22;4466;50.948;4.832;2024-02-23T10:16:21;8.60;99.90
8860;DHT22;4466;50.948;4.832;2024-02-23T10:18:48;8.70;99.90
8860;DHT22;4466;50.948;4.832;2024-02-23T10:21:17;8.70;99.90
8860;DHT22;4466;50.948;4.832;2024-02-23T10:23:47;8.80;99.90
8860;DHT22;4466;50.948;4.832;2024-02-23T10:26:15;8.80;99.90
8860;DHT22;4466;50.948;4.832;2024-02-23T10:28:45;8.80;99.90
8860;DHT22;4466;50.948;4.832;2024-02-23T10:31:11;8.80;99.90
8860;DHT22;4466;50.948;4.832;2024-02-23T10:33:37;8.70;99.90
8860;DHT22;4466;50.948;4.832;2024-02-23T10:36:05;8.60;99.90
8860;DHT22;4466;50.948;4.832;2024-02-23T10:38:35;8.50;99.90
8860;DHT22;4466;50.948;4.832;2024-02-23T10:41:05;8.60;99.90
8860;DHT22;4466;50.948;4.832;2024-02-23T10:43:44;8.60;99.90
8860;DHT22;4466;50.948;4.832;2024-02-23T10:46:12;8.70;99.90
8860;DHT22;4466;50.948;4.832;2024-02-23T10:48:42;8.60;99.90
8860;DHT22;4466;50.948;4.832;2024-02-23T10:51:10;8.70;99.90
8860;DHT22;4466;50.948;4.832;2024-02-23T10:53:39;8.70;99.90
8860;DHT22;4466;50.948;4.832;2024-02-23T10:56:06;8.80;99.90
8860;DHT22;4466;50.948;4.832;2024-02-23T10:58:32;8.90;99.90
8860;DHT22;4466;50.948;4.832;2024-02-23T11:01:03;8.90;99.90
8860;DHT22;4466;50.948;4.832;2024-02-23T11:03:31;8.90;99.90
8860;DHT22;4466;50.948;4.832;2024-02-23T11:05:59;9.00;99.90
8860;DHT22;4466;50.948;4.832;2024-02-23T11:08:28;9.00;99.90
8860;DHT22;4466;50.948;4.832;2024-02-23T11:10:54;9.20;99.90
8860;DHT22;4466;50.948;4.832;2024-02-23T11:16:06;9.10;99.90
8860;DHT22;4466;50.948;4.832;2024-02-23T11:18:34;9.10;99.90
8860;DHT22;4466;50.948;4.832;2024-02-23T11:21:01;9.00;99.90
8860;DHT22;4466;50.948;4.832;2024-02-23T11:23:45;9.00;99.90
8860;DHT22;4466;50.948;4.832;2024-02-23T11:28:50;9.10;99.90
8860;DHT22;4466;50.948;4.832;2024-02-23T11:31:23;9.00;99.90
8860;DHT22;4466;50.948;4.832;2024-02-23T11:33:56;9.00;99.90
8860;DHT22;4466;50.948;4.832;2024-02-23T11:36:30;8.90;99.90
8860;DHT22;4466;50.948;4.832;2024-02-23T11:39:00;8.90;99.90
8860;DHT22;4466;50.948;4.832;2024-02-23T11:41:27;8.90;99.90
8860;DHT22;4466;50.948;4.832;2024-02-23T11:43:54;8.90;99.90
8860;DHT22;4466;50.948;4.832;2024-02-23T11:46:21;8.90;99.90
8860;DHT22;4466;50.948;4.832;2024-02-23T11:48:48;8.80;99.90
8860;DHT22;4466;50.948;4.832;2024-02-23T11:51:19;8.90;99.90
8860;DHT22;4466;50.948;4.832;2024-02-23T11:53:45;8.80;99.90
8860;DHT22;4466;50.948;4.832;2024-02-23T11:56:11;8.80;99.90
8860;DHT22;4466;50.948;4.832;2024-02-23T11:58:37;8.90;99.90
8860;DHT22;4466;50.948;4.832;2024-02-23T12:01:03;8.90;99.90
8860;DHT22;4466;50.948;4.832;2024-02-23T12:03:29;8.90;99.90
8860;DHT22;4466;50.948;4.832;2024-02-23T12:06:02;8.90;99.90
8860;DHT22;4466;50.948;4.832;2024-02-23T12:08:30;8.90;99.90
8860;DHT22;4466;50.948;4.832;2024-02-23T12:10:56;9.00;99.90
8860;DHT22;4466;50.948;4.832;2024-02-23T12:13:23;9.00;99.90
8860;DHT22;4466;50.948;4.832;2024-02-23T12:15:52;9.10;99.90
8860;DHT22;4466;50.948;4.832;2024-02-23T12:18:27;9.10;99.90
8860;DHT22;4466;50.948;4.832;2024-02-23T12:20:53;9.10;99.90
8860;DHT22;4466;50.948;4.832;2024-02-23T12:23:18;9.20;99.90
8860;DHT22;4466;50.948;4.832;2024-02-23T12:25:54;9.20;99.90
8860;DHT22;4466;50.948;4.832;2024-02-23T12:28:22;9.30;99.90
8860;DHT22;4466;50.948;4.832;2024-02-23T12:31:00;9.30;99.90
8860;DHT22;4466;50.948;4.832;2024-02-23T12:33:33;9.30;99.90
8860;DHT22;4466;50.948;4.832;2024-02-23T12:36:00;9.40;99.90
8860;DHT22;4466;50.948;4.832;2024-02-23T12:38:26;9.50;99.90
8860;DHT22;4466;50.948;4.832;2024-02-23T12:40:52;9.50;99.90
8860;DHT22;4466;50.948;4.832;2024-02-23T12:43:18;9.60;99.90
8860;DHT22;4466;50.948;4.832;2024-02-23T12:45:47;9.60;99.90
8860;DHT22;4466;50.948;4.832;2024-02-23T12:48:16;9.70;99.90
8860;DHT22;4466;50.948;4.832;2024-02-23T12:50:42;9.80;99.90
8860;DHT22;4466;50.948;4.832;2024-02-23T12:53:09;9.70;99.90
8860;DHT22;4466;50.948;4.832;2024-02-23T12:55:35;9.70;99.90
8860;DHT22;4466;50.948;4.832;2024-02-23T12:58:02;9.70;99.90
8860;DHT22;4466;50.948;4.832;2024-02-23T13:00:28;9.80;99.90
8860;DHT22;4466;50.948;4.832;2024-02-23T13:02:54;9.70;99.90
8860;DHT22;4466;50.948;4.832;2024-02-23T13:05:19;9.60;99.90
8860;DHT22;4466;50.948;4.832;2024-02-23T13:07:45;9.50;99.90
8860;DHT22;4466;50.948;4.832;2024-02-23T13:10:12;9.50;99.90
8860;DHT22;4466;50.948;4.832;2024-02-23T13:12:38;9.40;99.90
8860;DHT22;4466;50.948;4.832;2024-02-23T13:15:04;9.50;99.90
8860;DHT22;4466;50.948;4.832;2024-02-23T13:17:30;9.60;99.90
8860;DHT22;4466;50.948;4.832;2024-02-23T13:19:55;9.60;99.90
8860;DHT22;4466;50.948;4.832;2024-02-23T13:22:21;9.70;99.90
8860;DHT22;4466;50.948;4.832;2024-02-23T13:24:46;9.80;99.90
8860;DHT22;4466;50.948;4.832;2024-02-23T13:27:12;9.80;99.90
8860;DHT22;4466;50.948;4.832;2024-02-23T13:29:38;9.80;99.90
8860;DHT22;4466;50.948;4.832;2024-02-23T13:32:03;9.70;99.90
8860;DHT22;4466;50.948;4.832;2024-02-23T13:34:29;9.70;99.90
8860;DHT22;4466;50.948;4.832;2024-02-23T13:36:55;9.70;99.90
8860;DHT22;4466;50.948;4.832;2024-02-23T13:39:20;9.80;99.90
8860;DHT22;4466;50.948;4.832;2024-02-23T13:41:46;9.90;99.90
8860;DHT22;4466;50.948;4.832;2024-02-23T13:44:12;9.90;99.90
8860;DHT22;4466;50.948;4.832;2024-02-23T13:46:40;10.00;99.90
8860;DHT22;4466;50.948;4.832;2024-02-23T13:49:07;10.00;99.90
8860;DHT22;4466;50.948;4.832;2024-02-23T13:51:34;10.10;99.90
8860;DHT22;4466;50.948;4.832;2024-02-23T13:54:00;10.20;99.90
8860;DHT22;4466;50.948;4.832;2024-02-23T13:56:26;10.20;99.90
8860;DHT22;4466;50.948;4.832;2024-02-23T13:58:51;10.10;99.90
8860;DHT22;4466;50.948;4.832;2024-02-23T14:01:17;10.10;99.90
8860;DHT22;4466;50.948;4.832;2024-02-23T14:03:43;10.10;99.90
8860;DHT22;4466;50.948;4.832;2024-02-23T14:06:08;10.00;99.90
8860;DHT22;4466;50.948;4.832;2024-02-23T14:08:35;10.00;99.90
8860;DHT22;4466;50.948;4.832;2024-02-23T14:11:03;10.00;99.90
8860;DHT22;4466;50.948;4.832;2024-02-23T14:13:31;10.00;99.90
8860;DHT22;4466;50.948;4.832;2024-02-23T14:15:56;10.10;99.90
8860;DHT22;4466;50.948;4.832;2024-02-23T14:18:22;9.90;99.90
8860;DHT22;4466;50.948;4.832;2024-02-23T14:20:48;9.90;99.90
8860;DHT22;4466;50.948;4.832;2024-02-23T14:23:13;9.90;99.90
8860;DHT22;4466;50.948;4.832;2024-02-23T14:25:39;9.90;99.90
8860;DHT22;4466;50.948;4.832;2024-02-23T14:28:04;9.90;99.90
8860;DHT22;4466;50.948;4.832;2024-02-23T14:30:30;10.00;99.90
8860;DHT22;4466;50.948;4.832;2024-02-23T14:32:56;10.20;99.90
8860;DHT22;4466;50.948;4.832;2024-02-23T14:35:21;10.40;99.90
8860;DHT22;4466;50.948;4.832;2024-02-23T14:37:47;10.50;99.90
8860;DHT22;4466;50.948;4.832;2024-02-23T14:42:48;10.70;99.90
8860;DHT22;4466;50.948;4.832;2024-02-23T14:45:14;10.70;99.90
8860;DHT22;4466;50.948;4.832;2024-02-23T14:47:42;10.60;99.90
8860;DHT22;4466;50.948;4.832;2024-02-23T14:50:10;10.50;99.90
8860;DHT22;4466;50.948;4.832;2024-02-23T14:52:36;10.40;99.90
8860;DHT22;4466;50.948;4.832;2024-02-23T14:55:01;10.30;99.90
8860;DHT22;4466;50.948;4.832;2024-02-23T14:57:27;10.30;99.90
8860;DHT22;4466;50.948;4.832;2024-02-23T14:59:53;10.20;99.90
8860;DHT22;4466;50.948;4.832;2024-02-23T15:02:20;10.30;99.90
8860;DHT22;4466;50.948;4.832;2024-02-23T15:04:46;10.20;99.90
8860;DHT22;4466;50.948;4.832;2024-02-23T15:07:12;10.10;99.90
8860;DHT22;4466;50.948;4.832;2024-02-23T15:09:38;9.90;99.90
8860;DHT22;4466;50.948;4.832;2024-02-23T15:12:04;9.90;99.90
8860;DHT22;4466;50.948;4.832;2024-02-23T15:14:30;10.00;99.90
8860;DHT22;4466;50.948;4.832;2024-02-23T15:16:55;10.10;99.90
8860;DHT22;4466;50.948;4.832;2024-02-23T15:19:21;10.30;99.90
8860;DHT22;4466;50.948;4.832;2024-02-23T15:21:48;10.40;99.90
8860;DHT22;4466;50.948;4.832;2024-02-23T15:24:15;10.30;99.90
8860;DHT22;4466;50.948;4.832;2024-02-23T15:26:43;10.30;99.90
8860;DHT22;4466;50.948;4.832;2024-02-23T15:29:09;10.40;99.90
8860;DHT22;4466;50.948;4.832;2024-02-23T15:31:35;10.50;99.90
8860;DHT22;4466;50.948;4.832;2024-02-23T15:34:01;10.40;99.90
8860;DHT22;4466;50.948;4.832;2024-02-23T15:36:27;10.30;99.90
8860;DHT22;4466;50.948;4.832;2024-02-23T15:38:53;10.10;99.90
8860;DHT22;4466;50.948;4.832;2024-02-23T15:41:24;10.00;99.90
8860;DHT22;4466;50.948;4.832;2024-02-23T15:43:50;10.10;99.90
8860;DHT22;4466;50.948;4.832;2024-02-23T15:46:16;10.10;99.90
8860;DHT22;4466;50.948;4.832;2024-02-23T15:48:41;10.10;99.90
8860;DHT22;4466;50.948;4.832;2024-02-23T15:51:07;10.00;99.90
8860;DHT22;4466;50.948;4.832;2024-02-23T15:53:33;10.00;99.90
8860;DHT22;4466;50.948;4.832;2024-02-23T15:55:59;10.00;99.90
8860;DHT22;4466;50.948;4.832;2024-02-23T15:58:25;10.10;99.90
8860;DHT22;4466;50.948;4.832;2024-02-23T16:00:50;10.30;99.90
8860;DHT22;4466;50.948;4.832;2024-02-23T16:03:18;10.50;99.90
8860;DHT22;4466;50.948;4.832;2024-02-23T16:05:44;10.80;99.90
8860;DHT22;4466;50.948;4.832;2024-02-23T16:08:11;12.00;99.90
8860;DHT22;4466;50.948;4.832;2024-02-23T16:10:37;13.00;99.90
8860;DHT22;4466;50.948;4.832;2024-02-23T16:13:03;13.80;99.90
8860;DHT22;4466;50.948;4.832;2024-02-23T16:15:29;13.70;99.90
8860;DHT22;4466;50.948;4.832;2024-02-23T16:17:55;12.80;99.90